首页
METAR-TAF:

METAR-TAF

机场 :

Chièvres, 比利时

纬度: 50-34N, 经度: 003-50E, 海拔: 60米

当前天气观测

该预报发布于36分钟前的01:25 UTC
风速4节,风向南转南东
温度 3°C
湿度 93%
气压 1010 hPa
能见度10公里或以上

METAR: EBCV 170125Z AUTO 15004KT 9999 NCD 03/02 Q1010 BLU

时间: 03:01 (02:01 UTC)

预报

该预报发布于10小时和20分钟前的15:41 UTC
预报有效从16日的 19点(UTC)到 17日的 07点(UTC)
风速3节,风向多变
能见度10公里或以上
散云层高于3500英尺
成为
从 17日的 02点(UTC)到 17日的 04点(UTC)
能見度: 4000
少量云层高于21000英尺
轻雾
几率 30% :
短暂存在
从 17日的 04点(UTC)到 17日的 07点(UTC)
能見度: 2000
轻雾

TAF: EBCV 161541Z 1619/1707 VRB03KT 9999 SCT035 BECMG 1702/1704 4000 BR FEW210 PROB30 TEMPO 1704/1707 2000 BR BY EBWM

超过4000个机场的气象观测和天气预报(METAR&TAF报告)。

可查询的气象台以黄色和红色小点在地图上表示。

将鼠标移到小点上方,可查看气象台名称。

然后点击查看天气观测和预报。

如需切换地图:点击带黑十字的绿色按钮放大地图;点击带横线的绿色按钮缩小地图;或者点击绿色箭头查看邻近地区的地图。


METAR-TAF: